Bear Lake, MI (49614)

13:18 EST le 08 décembre 2016 (GMT -0500)
Maple Grove Township | | Change Station
Avis météorologiques actifs: Winter Storm Warning

Alt. 755 ft 44.41 °N, 86.03 °W | Updated 8 seconds ago

Couvert
Couvert
29.7 ° F
Paraît 24 ° F
N
5.8
Vent Variable Vent de ONO
Gusts 7.4 mph

Aujourd'hui
Haut(e) -- | Bas -- ° F
--% Risque de précip.
Hier
Haut(e) -- | Bas -- ° F
Precip. -- pouce
Pression 30.11 pouce
Visibilité 9.0 Miles terrestres
Nuages Nuageux 1500 ft
Couvert 1900 ft
Refroidissement éolien 24 ° F
Point de rosée 20 ° F
Humidité 66%
Précipitations 0.00 pouce
Profondeur de la couche neigeuse Non disponible.
8:08 AM 5:04 PM
Lune gibbeuse croissante, 65% visible
METAR KMBL 081756Z AUTO 29012G20KT 9SM -SN BKN015 OVC019 M01/M04 A3004 RMK AO2 SLP196 P0000 60000 T10111044 11011 21050 57000 FZRANO
Pression 30.11 pouce
Visibilité 9.0 Miles terrestres
Nuages Nuageux 1500 ft
Couvert 1900 ft
Refroidissement éolien 24 ° F
Point de rosée 20 ° F
Humidité 66%
Précipitations 0.00 pouce
Profondeur de la couche neigeuse Non disponible.
8:08 AM 5:04 PM
Lune gibbeuse croissante, 65% visible
METAR KMBL 081756Z AUTO 29012G20KT 9SM -SN BKN015 OVC019 M01/M04 A3004 RMK AO2 SLP196 P0000 60000 T10111044 11011 21050 57000 FZRANO

10-Day Weather Forecast

Almanac

Astronomie

Dec. 08, 2016 Lever Coucher
Temps réel
Crépuscule civil
Crépuscule nautique
Crépuscule astronomique
Lune
Durée de lumière visible
Longueur du jour
Tomorrow will be .
, % of the Moon is Illuminated

Extrêmes aujourd'hui

State Highs State Lows

Community

WunderPhotos

Upload Photos

1,956,277 Photos téléchargées !

WunderBlog® & News

Nearby

Qualité de l'air

  Qualité de l'air Indice de la qualité de l'air Polluant
Not available.

Épaisseur de neige

Station Depth Altitude

Activité sismique

Ville Distance Mag. Time & Date
Minimum magnitude displayed is 2.5.

Températures des eaux côtières

Lieu Température

Stations

Stations météo à proximité

Emplacement de la station Température Refroidissement éolien Point de rosée Humidité Vent Precip. Alt. Mise à jour Type
                   

Watches & Warnings

Winter Storm Warning
Issued: 10:17 EST Dec. 8, 2016 – National Weather Service

... Winter Storm Warning remains in effect until 3 PM EST Friday...

* snow showers through Friday.

* The heaviest snowfall rates will occur this afternoon and
tonight.

* Total snow accumulations of 8 to 14 inches are expected.

* Areas of blowing snow are also expected... especially today.

* Look for significant reductions in visibility at times.

* Plan on difficult driving conditions... including during the
evening commute.

Precautionary/preparedness actions...

A Winter Storm Warning for snow means severe winter weather
conditions are expected. If you must travel... keep an extra
flashlight... food... and water in your vehicle in case of an
emergency. For the latest Road conditions... go to the mdot
website at Michigan.Gov.